Time;durP1;ratioP1;P1;durP2;ratioP2;P2;SDS_P1;SDS_P2;PMS_P1;PMS_P2;Temp;Humidity;BMP_temperature;BMP_pressure;BME280_temperature;BME280_humidity;BME280_pressure;Samples;Min_cycle;Max_cycle;Signal;HPM_P1;HPM_P2
2021/04/16 00:01:32;;;;;;;;;;;2.70;99.90;;;;;;5072189;28;19986;-47
2021/04/16 00:03:58;;;;;;;;;;;2.70;99.90;;;;;;5064619;28;19963;-48
2021/04/16 00:06:24;;;;;;;;;;;2.60;99.90;;;;;;5068813;28;19913;-46
2021/04/16 00:08:50;;;;;;;;;;;2.60;99.90;;;;;;5066248;28;19954;-48
2021/04/16 00:11:20;;;;;;;;;;;2.70;99.90;;;;;;5067840;28;19970;-47
2021/04/16 00:13:46;;;;;;;;;;;2.60;99.90;;;;;;5065957;28;19913;-48
2021/04/16 00:16:13;;;;;;;;;;;2.60;99.90;;;;;;5072208;28;20292;-47
2021/04/16 00:18:39;;;;;;;;;;;2.60;99.90;;;;;;5067834;28;19912;-48
2021/04/16 00:21:05;;;;;;;;;;;2.60;99.90;;;;;;5062991;28;19950;-47
2021/04/16 00:23:31;;;;;;;;;;;2.60;99.90;;;;;;5059494;28;20373;-47
2021/04/16 00:25:57;;;;;;;;;;;2.50;99.90;;;;;;5065982;28;20369;-48
2021/04/16 00:28:23;;;;;;;;;;;2.50;99.90;;;;;;5069981;28;19919;-48
2021/04/16 00:30:53;;;;;;;;;;;2.40;99.90;;;;;;5067148;28;19913;-48
2021/04/16 00:33:19;;;;;;;;;;;2.40;99.90;;;;;;5068792;28;19924;-48
2021/04/16 00:35:45;;;;;;;;;;;2.30;99.90;;;;;;5064579;28;19908;-48
2021/04/16 00:38:11;;;;;;;;;;;2.20;99.90;;;;;;5068650;28;19919;-47
2021/04/16 00:40:38;;;;;;;;;;;2.20;99.90;;;;;;5069178;28;20387;-47
2021/04/16 00:43:04;;;;;;;;;;;2.30;99.90;;;;;;5067055;28;19916;-48
2021/04/16 00:45:31;;;;;;;;;;;2.20;99.90;;;;;;5069493;28;19916;-49
2021/04/16 00:47:57;;;;;;;;;;;2.20;99.90;;;;;;5064981;28;19913;-49
2021/04/16 00:50:44;;;;;;;;;;;2.20;99.90;;;;;;5057444;28;19908;-47
2021/04/16 00:53:10;;;;;;;;;;;2.20;99.90;;;;;;5063314;28;19916;-47
2021/04/16 00:55:36;;;;;;;;;;;2.20;99.90;;;;;;5067171;28;19984;-49
2021/04/16 00:58:02;;;;;;;;;;;2.30;99.90;;;;;;5070663;28;19916;-48
2021/04/16 01:00:28;;;;;;;;;;;2.30;99.90;;;;;;5066623;28;19921;-48
2021/04/16 01:02:54;;;;;;;;;;;2.30;99.90;;;;;;5067283;28;19955;-48
2021/04/16 01:05:20;;;;;;;;;;;2.30;99.90;;;;;;5070312;28;20380;-47
2021/04/16 01:07:46;;;;;;;;;;;2.30;99.90;;;;;;5069304;28;19923;-47
2021/04/16 01:10:13;;;;;;;;;;;2.30;99.90;;;;;;5070542;28;19908;-47
2021/04/16 01:12:39;;;;;;;;;;;2.30;99.90;;;;;;5064435;28;19931;-47
2021/04/16 01:15:15;;;;;;;;;;;2.20;99.90;;;;;;5068244;28;19908;-47
2021/04/16 01:17:41;;;;;;;;;;;2.20;99.90;;;;;;5070641;28;19908;-47
2021/04/16 01:20:17;;;;;;;;;;;2.20;99.90;;;;;;5066133;28;19931;-48
2021/04/16 01:22:43;;;;;;;;;;;2.20;99.90;;;;;;5070775;28;19912;-46
2021/04/16 01:25:10;;;;;;;;;;;2.10;99.90;;;;;;5069607;28;19908;-47
2021/04/16 01:27:36;;;;;;;;;;;2.10;99.90;;;;;;5062181;28;19990;-47
2021/04/16 01:30:07;;;;;;;;;;;2.10;99.90;;;;;;5067894;28;19960;-46
2021/04/16 01:32:34;;;;;;;;;;;2.10;99.90;;;;;;5063281;28;19923;-47
2021/04/16 01:35:01;;;;;;;;;;;2.10;99.90;;;;;;5070241;28;19912;-46
2021/04/16 01:37:27;;;;;;;;;;;2.00;99.90;;;;;;5069913;28;19912;-50
2021/04/16 01:39:53;;;;;;;;;;;2.00;99.90;;;;;;5065587;28;20361;-51
2021/04/16 01:42:19;;;;;;;;;;;2.00;99.90;;;;;;5068229;28;19909;-51
2021/04/16 01:44:45;;;;;;;;;;;1.90;99.90;;;;;;5070599;28;19913;-51
2021/04/16 01:47:11;;;;;;;;;;;2.00;99.90;;;;;;5067843;28;20357;-51
2021/04/16 01:49:38;;;;;;;;;;;1.90;99.90;;;;;;5070833;28;19908;-50
2021/04/16 01:52:04;;;;;;;;;;;1.90;99.90;;;;;;5075335;28;19931;-48
2021/04/16 01:54:32;;;;;;;;;;;1.80;99.90;;;;;;5073951;28;20272;-52
2021/04/16 01:56:58;;;;;;;;;;;1.80;99.90;;;;;;5072443;28;19998;-51
2021/04/16 01:59:25;;;;;;;;;;;1.80;99.90;;;;;;5070712;28;20254;-48
2021/04/16 02:01:51;;;;;;;;;;;1.80;99.90;;;;;;5069008;28;19923;-48
2021/04/16 02:04:17;;;;;;;;;;;1.80;99.90;;;;;;5073509;28;19905;-51
2021/04/16 02:06:44;;;;;;;;;;;1.80;99.90;;;;;;5073585;28;19912;-50
2021/04/16 02:09:11;;;;;;;;;;;1.80;99.90;;;;;;5072748;28;19915;-47
2021/04/16 02:11:38;;;;;;;;;;;1.80;99.90;;;;;;5066640;28;20423;-47
2021/04/16 02:14:04;;;;;;;;;;;1.80;99.90;;;;;;5069995;28;19910;-47
2021/04/16 02:16:31;;;;;;;;;;;1.90;99.90;;;;;;5064822;28;20359;-46
2021/04/16 02:18:57;;;;;;;;;;;1.90;99.90;;;;;;5066807;28;20292;-47
2021/04/16 02:21:22;;;;;;;;;;;1.90;99.90;;;;;;5071469;28;19912;-48
2021/04/16 02:23:48;;;;;;;;;;;2.00;99.90;;;;;;5072973;28;19913;-47
2021/04/16 02:26:14;;;;;;;;;;;2.00;99.90;;;;;;5071501;28;19912;-49
2021/04/16 02:28:40;;;;;;;;;;;2.00;99.90;;;;;;5066878;28;19921;-49
2021/04/16 02:31:06;;;;;;;;;;;2.10;99.90;;;;;;5073371;28;19919;-50
2021/04/16 02:33:32;;;;;;;;;;;2.10;99.90;;;;;;5067799;28;19986;-48
2021/04/16 02:35:58;;;;;;;;;;;2.10;99.90;;;;;;5069271;28;19909;-48
2021/04/16 02:38:24;;;;;;;;;;;2.00;99.90;;;;;;5072984;28;19908;-48
2021/04/16 02:40:50;;;;;;;;;;;2.00;99.90;;;;;;5066201;28;20373;-48
2021/04/16 02:43:18;;;;;;;;;;;2.00;99.90;;;;;;5071256;28;20304;-49
2021/04/16 02:45:44;;;;;;;;;;;1.90;99.90;;;;;;5064567;28;19930;-50
2021/04/16 02:48:10;;;;;;;;;;;1.80;99.90;;;;;;5070928;28;19916;-51
2021/04/16 02:50:36;;;;;;;;;;;1.70;99.90;;;;;;5071366;28;20046;-49
2021/04/16 02:53:02;;;;;;;;;;;1.70;99.90;;;;;;5069981;28;19946;-51
2021/04/16 02:55:28;;;;;;;;;;;1.70;99.90;;;;;;5068220;28;19947;-48
2021/04/16 02:57:54;;;;;;;;;;;1.70;99.90;;;;;;5066980;28;20293;-48
2021/04/16 03:00:21;;;;;;;;;;;1.70;99.90;;;;;;5072265;28;19978;-48
2021/04/16 03:02:47;;;;;;;;;;;1.70;99.90;;;;;;5070177;28;19919;-47
2021/04/16 03:05:13;;;;;;;;;;;1.60;99.90;;;;;;5065528;28;19917;-47
2021/04/16 03:07:39;;;;;;;;;;;1.60;99.90;;;;;;5065331;28;19923;-48
2021/04/16 03:10:06;;;;;;;;;;;1.50;99.90;;;;;;5071040;28;19940;-50
2021/04/16 03:12:32;;;;;;;;;;;1.50;99.90;;;;;;5072755;28;19931;-48
2021/04/16 03:14:58;;;;;;;;;;;1.50;99.90;;;;;;5070560;28;20353;-48
2021/04/16 03:17:24;;;;;;;;;;;1.50;99.90;;;;;;5072114;28;19919;-50
2021/04/16 03:19:50;;;;;;;;;;;1.40;99.90;;;;;;5072276;28;19912;-49
2021/04/16 03:22:16;;;;;;;;;;;1.40;99.90;;;;;;5064760;28;20270;-49
2021/04/16 03:24:42;;;;;;;;;;;1.40;99.90;;;;;;5070419;28;19955;-50
2021/04/16 03:27:08;;;;;;;6.07;0.93;;;1.40;99.90;;;;;;5062169;28;20363;-50
2021/04/16 03:29:34;;;;;;;1.67;0.70;;;1.40;99.90;;;;;;5069234;28;20187;-48
2021/04/16 03:32:01;;;;;;;3.20;1.10;;;1.40;99.90;;;;;;5065934;28;20214;-48
2021/04/16 03:34:27;;;;;;;4.40;0.93;;;1.30;99.90;;;;;;5064247;28;20196;-48
2021/04/16 03:36:53;;;;;;;7.80;0.98;;;1.30;99.90;;;;;;5062610;28;20190;-47
2021/04/16 03:39:19;;;;;;;5.95;1.35;;;1.30;99.90;;;;;;5069921;28;20190;-48
2021/04/16 03:41:45;;;;;;;6.00;0.90;;;1.30;99.90;;;;;;5072785;28;20205;-48
2021/04/16 03:44:11;;;;;;;2.60;0.70;;;1.30;99.90;;;;;;5064428;28;20178;-48
2021/04/16 03:46:37;;;;;;;4.40;0.90;;;1.30;99.90;;;;;;5070568;28;20680;-48
2021/04/16 03:49:04;;;;;;;1.50;0.77;;;1.20;99.90;;;;;;5067892;28;20178;-47
2021/04/16 03:51:30;;;;;;;2.33;0.88;;;1.20;99.90;;;;;;5069565;28;20684;-49
2021/04/16 03:53:56;;;;;;;2.70;0.90;;;1.20;99.90;;;;;;5086023;28;20630;-47
2021/04/16 03:56:22;;;;;;;1.80;0.90;;;1.20;99.90;;;;;;5073044;28;20189;-46
2021/04/16 03:58:49;;;;;;;2.75;0.98;;;1.20;99.90;;;;;;5072025;28;20216;-47
2021/04/16 04:01:17;;;;;;;2.33;0.63;;;1.20;99.90;;;;;;5067832;28;20210;-47
2021/04/16 04:03:43;;;;;;;1.35;0.68;;;1.20;99.90;;;;;;5072633;28;20182;-47
2021/04/16 04:06:09;;;;;;;2.13;1.15;;;1.20;99.90;;;;;;5072453;28;20177;-49
2021/04/16 04:08:35;;;;;;;4.68;1.00;;;1.20;99.90;;;;;;5069224;28;20508;-47
2021/04/16 04:11:02;;;;;;;1.70;0.82;;;1.20;99.90;;;;;;5070132;28;20185;-47
2021/04/16 04:13:29;;;;;;;3.80;1.10;;;1.20;99.90;;;;;;5068694;28;20182;-47
2021/04/16 04:15:55;;;;;;;4.57;1.10;;;1.10;99.90;;;;;;5078889;28;20179;-48
2021/04/16 04:18:21;;;;;;;2.30;0.82;;;1.10;99.90;;;;;;5062913;28;20182;-47
2021/04/16 04:20:47;;;;;;;7.88;1.00;;;1.10;99.90;;;;;;5067658;28;20218;-47
2021/04/16 04:23:13;;;;;;;3.65;0.82;;;1.10;99.90;;;;;;5069623;28;20186;-47
2021/04/16 04:25:39;;;;;;;3.28;1.05;;;1.10;99.90;;;;;;5064565;28;20178;-47
2021/04/16 04:28:06;;;;;;;4.05;0.93;;;1.10;99.90;;;;;;5072382;28;20189;-48
2021/04/16 04:30:35;;;;;;;2.03;0.80;;;1.10;99.90;;;;;;5069818;28;20173;-48
2021/04/16 04:33:02;;;;;;;2.63;1.05;;;1.10;99.90;;;;;;5071423;28;20706;-48
2021/04/16 04:35:28;;;;;;;9.02;1.15;;;1.20;99.90;;;;;;5069866;28;20184;-47
2021/04/16 04:37:54;;;;;;;15.77;0.93;;;1.30;99.90;;;;;;5071703;28;20173;-51
2021/04/16 04:40:22;;;;;;;3.35;1.05;;;1.30;99.90;;;;;;5071329;28;20181;-48
2021/04/16 04:42:48;;;;;;;2.13;1.08;;;1.40;99.90;;;;;;5087000;28;20188;-48
2021/04/16 04:45:14;;;;;;;2.55;1.08;;;1.50;99.90;;;;;;5071282;28;20598;-47
2021/04/16 04:47:41;;;;;;;6.97;1.15;;;1.60;99.90;;;;;;5072820;28;20193;-46
2021/04/16 04:50:08;;;;;;;6.43;1.08;;;1.60;99.90;;;;;;5072572;28;20170;-46
2021/04/16 04:52:36;;;;;;;7.47;1.20;;;1.60;99.90;;;;;;5072427;28;20536;-46
2021/04/16 04:55:05;;;;;;;2.92;1.05;;;1.70;99.90;;;;;;5072591;28;20181;-46
2021/04/16 04:57:31;;;;;;;3.28;1.15;;;1.80;99.90;;;;;;5072390;28;20185;-47
2021/04/16 04:59:57;;;;;;;2.50;0.88;;;1.90;99.90;;;;;;5072373;28;20193;-45
2021/04/16 05:02:24;;;;;;;4.53;1.05;;;2.00;99.90;;;;;;5072383;28;20228;-46
2021/04/16 05:04:50;;;;;;;8.70;1.40;;;2.10;99.90;;;;;;5071942;28;20173;-48
2021/04/16 05:07:16;;;;;;;4.88;1.08;;;2.20;99.90;;;;;;5072642;28;20177;-47
2021/04/16 05:09:42;;;;;;;6.10;1.00;;;2.20;99.90;;;;;;5071823;28;20497;-46
2021/04/16 05:12:09;;;;;;;2.17;0.82;;;2.30;99.90;;;;;;5071143;28;20174;-49
2021/04/16 05:14:36;;;;;;;3.17;0.82;;;2.40;99.90;;;;;;5071949;28;20733;-48
2021/04/16 05:17:02;;;;;;;3.70;0.60;;;2.50;99.90;;;;;;5072303;28;20185;-48
2021/04/16 05:19:28;;;;;;;0.17;0.17;;;2.60;99.90;;;;;;5070965;28;20196;-48
2021/04/16 05:21:56;;;;;;;0.13;0.10;;;2.70;99.90;;;;;;5071577;28;20206;-48
2021/04/16 05:24:23;;;;;;;0.20;0.17;;;2.90;99.90;;;;;;5072221;28;20174;-48
2021/04/16 05:26:49;;;;;;;0.22;0.22;;;2.90;99.90;;;;;;5074518;28;20201;-45
2021/04/16 05:29:15;;;;;;;1.77;0.57;;;3.00;99.90;;;;;;5076302;28;20186;-46
2021/04/16 05:31:41;;;;;;;0.15;0.08;;;3.10;99.90;;;;;;5075552;28;20194;-47
2021/04/16 05:34:08;;;;;;;2.08;0.30;;;3.20;99.90;;;;;;5075951;28;20170;-48
2021/04/16 05:36:34;;;;;;;1.05;0.30;;;3.30;99.90;;;;;;5075896;28;20630;-46
2021/04/16 05:39:00;;;;;;;0.73;0.55;;;3.30;99.90;;;;;;5074128;28;20166;-46
2021/04/16 05:41:26;;;;;;;22.45;6.20;;;3.40;99.90;;;;;;5075690;28;20662;-46
2021/04/16 05:43:52;;;;;;;0.03;0.03;;;3.50;99.90;;;;;;5075609;28;20530;-49
2021/04/16 05:46:18;;;;;;;36.45;1.02;;;3.50;99.90;;;;;;5069027;28;20653;-49
2021/04/16 05:48:45;;;;;;;5.70;0.40;;;3.60;99.90;;;;;;5061000;28;20190;-48
2021/04/16 05:51:11;;;;;;;0.20;0.20;;;3.70;99.90;;;;;;5067396;28;20182;-46
2021/04/16 05:53:37;;;;;;;0.73;0.17;;;3.80;99.90;;;;;;5074652;28;20186;-47
2021/04/16 05:56:05;;;;;;;1.10;0.43;;;3.90;99.90;;;;;;5073967;28;20171;-49
2021/04/16 05:58:31;;;;;;;0.47;0.22;;;4.00;99.90;;;;;;5069715;28;20186;-47
2021/04/16 06:00:57;;;;;;;0.80;0.35;;;4.10;99.90;;;;;;5073709;28;20217;-47
2021/04/16 06:03:23;;;;;;;0.68;0.40;;;4.20;99.90;;;;;;5069458;28;20194;-47
2021/04/16 06:05:49;;;;;;;0.10;0.10;;;4.20;99.90;;;;;;5078956;28;20185;-46
2021/04/16 06:08:20;;;;;;;3.92;0.80;;;4.40;99.90;;;;;;5073044;28;20174;-46
2021/04/16 06:10:47;;;;;;;3.45;1.02;;;4.40;99.90;;;;;;5071330;28;20197;-47
2021/04/16 06:13:13;;;;;;;9.05;1.48;;;4.50;99.90;;;;;;5058084;28;20529;-48
2021/04/16 06:15:39;;;;;;;3.22;1.20;;;4.70;99.90;;;;;;5060710;28;20182;-48
2021/04/16 06:18:05;;;;;;;20.52;0.73;;;4.70;99.90;;;;;;5063259;28;20186;-48
2021/04/16 06:20:32;;;;;;;5.00;0.47;;;4.80;99.90;;;;;;5059276;28;20179;-47
2021/04/16 06:22:58;;;;;;;4.75;0.98;;;5.00;99.90;;;;;;5077101;28;20709;-47
2021/04/16 06:25:27;;;;;;;5.10;0.68;;;5.20;99.90;;;;;;5055860;28;20170;-48
2021/04/16 06:27:53;;;;;;;0.32;0.30;;;5.30;99.90;;;;;;5078208;28;20178;-47
2021/04/16 06:30:20;;;;;;;7.50;1.23;;;5.40;99.90;;;;;;5066891;28;20186;-47
2021/04/16 06:32:58;;;;;;;1.60;0.57;;;5.40;99.90;;;;;;5057066;28;20222;-48
2021/04/16 06:35:24;;;;;;;1.13;0.45;;;5.40;99.90;;;;;;5062552;28;20190;-48
2021/04/16 06:37:50;;;;;;;6.93;1.30;;;5.50;99.90;;;;;;5069591;28;20201;-47
2021/04/16 06:40:16;;;;;;;7.32;0.63;;;5.60;99.90;;;;;;5065256;28;20179;-47
2021/04/16 06:42:42;;;;;;;0.63;0.30;;;5.50;99.90;;;;;;5071634;28;20202;-48
2021/04/16 06:45:14;;;;;;;3.63;0.80;;;5.60;99.90;;;;;;5048123;28;20183;-48
2021/04/16 06:48:00;;;;;;;1.05;0.43;;;5.70;99.90;;;;;;5079933;28;20182;-49
2021/04/16 06:50:30;;;;;;;1.83;1.23;;;5.80;99.90;;;;;;5063537;28;20654;-48
2021/04/16 06:53:06;;;;;;;0.98;0.30;;;5.90;99.90;;;;;;5058692;28;20207;-49
2021/04/16 06:55:52;;;;;;;2.63;0.47;;;6.00;99.90;;;;;;5070991;28;20625;-49
2021/04/16 06:58:23;;;;;;;0.82;0.40;;;6.10;99.90;;;;;;5070422;28;20189;-47
2021/04/16 07:01:03;;;;;;;2.47;0.50;;;6.20;99.90;;;;;;5041329;28;20678;-48
2021/04/16 07:03:33;;;;;;;1.65;0.40;;;6.30;99.90;;;;;;5078581;28;20170;-48
2021/04/16 07:06:23;;;;;;;2.13;0.70;;;6.40;99.90;;;;;;5071901;28;20174;-47
2021/04/16 07:09:01;;;;;;;5.93;0.60;;;6.50;99.90;;;;;;5064452;28;20173;-49
2021/04/16 07:11:31;;;;;;;1.25;0.40;;;6.70;99.90;;;;;;5059469;28;20182;-47
2021/04/16 07:14:01;;;;;;;4.65;0.60;;;6.80;99.90;;;;;;5052977;28;20526;-48
2021/04/16 07:16:27;;;;;;;4.72;0.73;;;6.80;99.90;;;;;;5069403;28;20202;-48
2021/04/16 07:18:55;;;;;;;2.03;0.77;;;6.90;99.90;;;;;;5070806;28;20182;-48
2021/04/16 07:21:22;;;;;;;1.70;0.90;;;7.10;99.90;;;;;;5033482;28;20215;-47
2021/04/16 07:23:48;;;;;;;1.00;0.57;;;7.10;99.90;;;;;;5068753;28;20186;-47
2021/04/16 07:26:38;;;;;;;1.42;0.50;;;7.30;99.90;;;;;;5064670;28;20185;-48
2021/04/16 07:29:05;;;;;;;5.22;0.40;;;7.40;99.90;;;;;;5072370;28;20207;-48
2021/04/16 07:31:37;;;;;;;3.13;0.75;;;7.60;99.90;;;;;;5071255;28;20193;-47
2021/04/16 07:34:04;;;;;;;2.85;0.55;;;7.60;99.90;;;;;;5060643;28;20615;-46
2021/04/16 07:36:38;;;;;;;4.00;1.00;;;7.80;99.90;;;;;;5079421;28;20191;-48
2021/04/16 07:39:13;;;;;;;7.63;0.75;;;7.90;99.90;;;;;;5060337;28;20539;-47
2021/04/16 07:41:39;;;;;;;2.05;0.80;;;8.00;99.90;;;;;;5059952;28;20197;-47
2021/04/16 07:44:05;;;;;;;1.15;0.50;;;8.20;99.90;;;;;;5053852;28;20200;-48
2021/04/16 07:46:36;;;;;;;2.47;0.70;;;8.30;99.90;;;;;;5052061;28;20194;-48
2021/04/16 07:49:13;;;;;;;2.58;0.68;;;8.40;99.90;;;;;;5054481;28;20175;-48
2021/04/16 07:51:40;;;;;;;7.80;0.90;;;8.60;99.20;;;;;;5052451;28;20194;-47
2021/04/16 07:54:16;;;;;;;2.45;0.70;;;8.50;98.80;;;;;;5062212;28;20182;-48
2021/04/16 07:56:43;;;;;;;2.05;0.65;;;8.80;99.90;;;;;;5063620;28;20204;-45
2021/04/16 07:59:18;;;;;;;3.30;0.88;;;8.70;98.40;;;;;;5075031;28;20672;-46
2021/04/16 08:01:47;;;;;;;2.70;0.60;;;8.90;97.10;;;;;;5074510;28;20211;-49
2021/04/16 08:04:20;;;;;;;1.90;0.63;;;9.20;97.00;;;;;;5080161;28;20208;-49
2021/04/16 08:06:47;;;;;;;1.70;0.50;;;9.30;97.20;;;;;;5070874;28;20177;-48
2021/04/16 08:09:28;;;;;;;8.73;0.63;;;9.40;95.00;;;;;;5070826;28;20207;-48
2021/04/16 08:12:00;;;;;;;3.85;0.80;;;9.80;92.40;;;;;;5061731;28;20186;-48
2021/04/16 08:14:29;;;;;;;24.35;22.27;;;10.10;91.30;;;;;;5060273;28;20189;-49
2021/04/16 08:16:58;;;;;;;221.00;198.30;;;10.50;90.50;;;;;;5069887;28;20170;-48
2021/04/16 08:19:31;;;;;;;175.30;160.82;;;10.70;87.30;;;;;;5057000;28;20194;-50
2021/04/16 08:21:59;;;;;;;;;;;11.30;86.80;;;;;;5053006;28;20510;-50
2021/04/16 08:24:25;;;;;;;;;;;11.50;86.90;;;;;;5061193;28;19911;-49
2021/04/16 08:27:10;;;;;;;;;;;11.90;83.30;;;;;;5062866;28;20281;-50
2021/04/16 08:29:39;;;;;;;;;;;12.00;80.50;;;;;;5056628;28;19913;-49
2021/04/16 08:32:07;;;;;;;;;;;11.90;81.90;;;;;;5061368;28;19935;-50
2021/04/16 08:34:38;;;;;;;;;;;12.40;80.10;;;;;;5070846;28;19909;-52
2021/04/16 08:37:04;;;;;;;;;;;12.80;78.20;;;;;;5054853;28;19908;-50
2021/04/16 08:39:41;;;;;;;;;;;13.40;77.30;;;;;;5071468;28;19912;-49
2021/04/16 08:42:09;;;;;;;;;;;13.60;75.10;;;;;;5072394;28;19928;-50
2021/04/16 08:44:58;;;;;;;;;;;13.50;73.50;;;;;;5061677;28;19915;-48
2021/04/16 08:47:32;;;;;;;;;;;13.10;73.50;;;;;;5060645;28;19924;-50
2021/04/16 08:49:58;;;;;;;;;;;14.30;73.90;;;;;;5052217;28;19915;-49
2021/04/16 08:52:27;;;;;;;;;;;14.60;74.00;;;;;;5064665;28;19913;-50
2021/04/16 08:54:53;;;;;;;;;;;14.50;68.70;;;;;;5064511;28;19909;-49
2021/04/16 08:57:19;;;;;;;;;;;13.90;65.70;;;;;;5067981;28;20365;-49
2021/04/16 08:59:48;;;;;;;;;;;14.40;67.20;;;;;;5058326;28;19913;-50
2021/04/16 09:02:14;;;;;;;;;;;14.30;65.50;;;;;;5078785;28;19916;-49
2021/04/16 09:04:42;;;;;;;;;;;14.70;65.10;;;;;;5077019;28;19909;-48
2021/04/16 09:07:11;;;;;;;;;;;15.30;62.30;;;;;;5076958;28;19965;-49
2021/04/16 09:09:42;;;;;;;;;;;15.30;61.10;;;;;;5061986;28;19919;-49
2021/04/16 09:12:08;;;;;;;;;;;15.50;56.90;;;;;;5057887;28;19915;-50
2021/04/16 09:14:34;;;;;;;;;;;15.30;58.60;;;;;;5057827;28;20308;-49
2021/04/16 09:17:00;;;;;;;;;;;14.90;59.70;;;;;;5073043;28;19951;-48
2021/04/16 09:19:26;;;;;;;;;;;15.80;58.40;;;;;;5076632;28;20652;-49
2021/04/16 09:22:02;;;;;;;;;;;15.80;56.10;;;;;;5060952;28;19916;-50
2021/04/16 09:24:42;;;;;;;;;;;15.70;54.80;;;;;;5072478;28;19909;-50
2021/04/16 09:27:27;;;;;;;;;;;16.00;54.90;;;;;;5066690;28;19913;-49
2021/04/16 09:29:59;;;;;;;;;;;16.90;54.60;;;;;;5065262;28;19919;-50
2021/04/16 09:32:29;;;;;;;;;;;17.80;55.60;;;;;;5064301;28;20269;-51
2021/04/16 09:34:55;;;;;;;;;;;18.30;54.40;;;;;;5070307;28;19909;-49
2021/04/16 09:37:40;;;;;;;;;;;17.80;54.10;;;;;;5078219;28;19911;-51
2021/04/16 09:40:23;;;;;;;;;;;17.40;53.30;;;;;;5065318;28;20297;-48
2021/04/16 09:43:07;;;;;;;;;;;18.40;52.20;;;;;;5066309;28;19971;-50
2021/04/16 09:45:33;;;;;;;;;;;19.70;50.00;;;;;;5064341;28;19912;-50
2021/04/16 09:48:04;;;;;;;;;;;20.40;49.70;;;;;;5065867;28;19912;-51
2021/04/16 09:50:37;;;;;;;;;;;20.00;46.40;;;;;;5066715;28;19909;-55
2021/04/16 09:53:06;;;;;;;;;;;21.00;46.30;;;;;;5060851;28;19904;-50
2021/04/16 09:55:44;;;;;;;;;;;20.90;44.40;;;;;;5060849;28;20431;-54
2021/04/16 09:58:10;;;;;;;;;;;20.10;44.30;;;;;;5077434;28;19912;-50
2021/04/16 10:00:38;;;;;;;;;;;20.40;44.60;;;;;;5069331;28;20295;-50
2021/04/16 10:03:20;;;;;;;;;;;21.30;42.20;;;;;;5071584;28;19920;-51
2021/04/16 10:05:46;;;;;;;;;;;21.80;42.70;;;;;;5080266;28;19908;-53
2021/04/16 10:08:21;;;;;;;;;;;22.50;41.70;;;;;;5076270;28;19934;-49
2021/04/16 10:10:47;;;;;;;;;;;22.80;40.80;;;;;;5078194;28;20364;-52
2021/04/16 10:13:14;;;;;;;;;;;21.70;40.70;;;;;;5074481;28;19920;-51
2021/04/16 10:15:42;;;;;;;;;;;22.40;41.60;;;;;;5066328;28;19916;-53
2021/04/16 10:18:13;;;;;;;;;;;22.90;38.70;;;;;;5074446;28;20395;-52
2021/04/16 10:20:41;;;;;;;;;;;22.60;39.20;;;;;;5066072;28;19966;-52
2021/04/16 10:23:26;;;;;;;;;;;22.10;38.70;;;;;;5071981;28;19916;-50
2021/04/16 12:41:18;;;;;;;;;;;19.20;37.60;;;;;;5052842;28;20448;-48
2021/04/16 12:43:45;;;;;;;;;;;19.60;37.30;;;;;;5056833;28;20296;-49
2021/04/16 12:46:12;;;;;;;;;;;19.60;36.30;;;;;;5071804;28;19908;-49
2021/04/16 12:48:37;;;;;;;;;;;19.20;36.10;;;;;;5062524;28;19908;-49
2021/04/16 12:51:03;;;;;;;;;;;18.40;38.50;;;;;;5071193;28;20276;-49
2021/04/16 12:53:29;;;;;;;;;;;19.00;38.10;;;;;;5067515;28;19912;-49
2021/04/16 12:55:55;;;;;;;;;;;18.90;37.00;;;;;;5060488;28;20359;-48
2021/04/16 12:58:23;;;;;;;;;;;18.10;37.10;;;;;;5071825;28;20325;-49
2021/04/16 13:00:49;;;;;;;;;;;18.40;38.00;;;;;;5069483;28;19935;-49
2021/04/16 13:03:19;;;;;;;;;;;18.70;37.40;;;;;;5056478;28;20280;-50
2021/04/16 13:05:45;;;;;;;;;;;19.70;38.30;;;;;;5058854;28;19916;-50
2021/04/16 13:08:11;;;;;;;;;;;20.20;37.40;;;;;;5057704;28;19920;-48
2021/04/16 13:10:37;;;;;;;;;;;19.90;37.70;;;;;;5059012;28;19920;-50
2021/04/16 13:13:03;;;;;;;;;;;20.50;36.60;;;;;;5057038;28;19912;-49
2021/04/16 13:15:29;;;;;;;;;;;21.40;35.00;;;;;;5059189;28;19920;-50
2021/04/16 13:17:57;;;;;;;;;;;21.30;35.50;;;;;;5058103;28;19944;-49
2021/04/16 13:20:23;;;;;;;;;;;21.10;35.30;;;;;;5054584;28;19919;-53
2021/04/16 13:22:49;;;;;;;;;;;21.10;36.00;;;;;;5072200;28;20391;-51
2021/04/16 13:25:15;;;;;;;;;;;21.30;35.60;;;;;;5061926;28;19924;-49
2021/04/16 13:27:41;;;;;;;;;;;20.60;35.40;;;;;;5062811;28;19919;-49
2021/04/16 13:30:08;;;;;;;;;;;20.70;36.00;;;;;;5055311;28;19928;-57
2021/04/16 13:32:35;;;;;;;;;;;19.40;37.60;;;;;;5057721;28;19932;-48
2021/04/16 13:35:01;;;;;;;;;;;19.20;37.30;;;;;;5060685;28;19917;-48
2021/04/16 13:37:30;;;;;;;;;;;19.60;37.70;;;;;;5057535;28;19916;-48
2021/04/16 13:39:56;;;;;;;;;;;20.00;37.40;;;;;;5058175;28;19916;-49
2021/04/16 13:42:22;;;;;;;;;;;20.20;38.30;;;;;;5056720;28;19923;-48
2021/04/16 13:44:48;;;;;;;;;;;20.90;36.50;;;;;;5058307;28;19908;-50
2021/04/16 13:47:16;;;;;;;;;;;20.60;37.20;;;;;;5064323;28;19912;-49
2021/04/16 13:49:42;;;;;;;;;;;20.50;37.40;;;;;;5061031;28;19916;-53
2021/04/16 13:52:08;;;;;;;;;;;20.60;38.30;;;;;;5062646;28;19930;-53
2021/04/16 13:54:34;;;;;;;;;;;20.00;37.30;;;;;;5067778;28;19913;-51
2021/04/16 13:57:00;;;;;;;;;;;19.30;38.50;;;;;;5063722;28;20309;-50
2021/04/16 13:59:26;;;;;;;;;;;18.60;39.70;;;;;;5061930;28;19912;-48
2021/04/16 14:01:52;;;;;;;;;;;18.40;39.40;;;;;;5068876;28;20657;-50
2021/04/16 14:04:19;;;;;;;;;;;18.60;39.50;;;;;;5064900;28;19913;-48
2021/04/16 14:06:45;;;;;;;;;;;18.40;39.50;;;;;;5066295;28;20354;-49
2021/04/16 14:09:13;;;;;;;;;;;18.50;41.00;;;;;;5062844;28;19921;-52
2021/04/16 14:11:39;;;;;;;;;;;18.60;41.10;;;;;;5058390;28;20284;-48
2021/04/16 14:14:10;;;;;;;;;;;18.10;41.00;;;;;;5067353;28;20357;-48
2021/04/16 14:16:36;;;;;;;;;;;18.60;40.80;;;;;;5072692;28;20388;-51
2021/04/16 14:19:09;;;;;;;;;;;19.20;40.30;;;;;;5056986;28;19915;-48
2021/04/16 14:21:36;;;;;;;;;;;19.10;40.00;;;;;;5058581;28;19912;-50
2021/04/16 14:24:03;;;;;;;;;;;19.20;40.30;;;;;;5069499;28;19917;-50
2021/04/16 14:26:29;;;;;;;;;;;18.80;39.50;;;;;;5062902;28;19909;-50
2021/04/16 14:28:55;;;;;;;;;;;18.60;40.50;;;;;;5065899;28;19921;-50
2021/04/16 14:31:20;;;;;;;;;;;19.80;39.50;;;;;;5074435;28;19916;-49
2021/04/16 14:33:46;;;;;;;;;;;19.40;39.90;;;;;;5058779;28;19921;-49
2021/04/16 14:36:13;;;;;;;;;;;18.00;39.90;;;;;;5063020;28;20357;-48
2021/04/16 14:38:39;;;;;;;;;;;17.50;41.50;;;;;;5061395;28;20621;-48
2021/04/16 14:41:05;;;;;;;;;;;16.50;42.40;;;;;;5063031;28;19913;-49
2021/04/16 14:43:31;;;;;;;;;;;16.00;44.30;;;;;;5067033;28;20280;-49
2021/04/16 14:45:57;;;;;;;;;;;15.90;44.80;;;;;;5059736;28;19962;-48
2021/04/16 14:48:24;;;;;;;;;;;16.20;44.30;;;;;;5072351;28;19962;-48
2021/04/16 14:50:50;;;;;;;;;;;16.00;43.80;;;;;;5053949;28;20825;-50
2021/04/16 14:53:28;;;;;;;;;;;15.70;44.40;;;;;;5061232;28;20293;-48
2021/04/16 14:55:54;;;;;;;;;;;15.70;45.80;;;;;;5055780;28;19908;-48
2021/04/16 14:58:26;;;;;;;;;;;15.90;45.80;;;;;;5053341;28;19931;-48
2021/04/16 15:00:52;;;;;;;;;;;16.10;44.80;;;;;;5061203;28;19912;-48
2021/04/16 15:03:18;;;;;;;;;;;16.10;44.40;;;;;;5058527;28;19921;-48
2021/04/16 15:05:44;;;;;;;;;;;15.70;45.50;;;;;;5057188;28;19913;-48
2021/04/16 15:08:12;;;;;;;;;;;15.90;45.00;;;;;;5054919;28;20012;-51
2021/04/16 15:10:45;;;;;;;;;;;15.70;45.10;;;;;;5053065;28;19931;-47
2021/04/16 15:13:11;;;;;;;;;;;15.50;44.60;;;;;;5067993;28;19970;-50
2021/04/16 15:15:38;;;;;;;;;;;15.40;44.80;;;;;;5079734;28;19908;-48
2021/04/16 15:18:08;;;;;;;;;;;15.50;45.60;;;;;;5064840;28;19908;-48
2021/04/16 15:20:34;;;;;;;;;;;15.70;46.80;;;;;;5071125;28;19908;-47
2021/04/16 15:23:00;;;;;;;;;;;15.60;44.80;;;;;;5081500;28;19997;-48
2021/04/16 15:25:26;;;;;;;;;;;15.60;44.90;;;;;;5078792;28;19908;-47
2021/04/16 15:28:05;;;;;;;;;;;15.80;45.30;;;;;;5062933;28;20246;-48
2021/04/16 15:30:32;;;;;;;;;;;15.70;44.80;;;;;;5065400;28;20360;-48
2021/04/16 15:32:59;;;;;;;;;;;15.30;45.80;;;;;;5058214;28;19924;-47
2021/04/16 15:49:05;;;;;;;243.45;67.18;;;14.90;47.10;;;;;;5074520;28;20684;-48
2021/04/16 15:51:32;;;;;;;247.55;64.72;;;15.40;46.30;;;;;;5060442;28;20195;-48
2021/04/16 15:53:58;;;;;;;232.15;65.80;;;14.70;47.40;;;;;;5064598;28;20553;-49
2021/04/16 15:56:28;;;;;;;229.40;62.72;;;14.40;47.30;;;;;;5059449;28;20179;-49
2021/04/16 15:58:55;;;;;;;233.02;62.65;;;14.10;48.70;;;;;;5083125;28;20178;-49
2021/04/16 16:01:23;;;;;;;234.18;64.68;;;13.90;48.20;;;;;;5075941;28;20171;-50
2021/04/16 16:03:49;;;;;;;212.27;58.20;;;13.80;49.30;;;;;;5056908;28;20201;-64
2021/04/16 16:06:15;;;;;;;236.05;64.25;;;13.60;49.30;;;;;;5061384;28;20205;-49
2021/04/16 16:08:41;;;;;;;210.43;57.05;;;13.50;50.10;;;;;;5061814;28;20193;-48
2021/04/16 16:11:15;;;;;;;208.07;63.50;;;13.50;50.60;;;;;;5061355;28;20190;-47
2021/04/16 16:13:41;;;;;;;207.77;61.50;;;13.30;50.30;;;;;;5043254;28;20191;-48
2021/04/16 16:16:16;;;;;;;202.25;56.88;;;13.40;50.90;;;;;;5076368;28;20174;-48
2021/04/16 16:18:43;;;;;;;205.27;61.72;;;13.30;51.20;;;;;;5066484;28;20162;-51